Portada
METAR-TAF:

METAR-TAF

Aeropuertos :

Atenas, Grecia

Aeropuerto Internacional Eleftherios Venizelos

latitud: 37-56N, longitud: 023-56E, altitud: 94 m

Observación

El informe se hizo hace 42 minutos, a las 06:20 UTC
Viento 2 kt con dirección variable
Temperatura 29°C
Humedad 35%
Presión 1014 hPa
Visibilidad 10 km o más
sin nubes por debajo de 1500 m y sin presencia de cumulonimbus.

METAR: LGAV 240620Z VRB02KT CAVOK 29/12 Q1014 NOSIG

Hora: 10:02 (07:02 UTC)

Pronóstico

El informe se hizo hace 14 horas y 2 minutos, a las 17:00 UTC
Pronóstico válido del 23 a las 18 UTC al 24 a las 18 UTC
Viento 5 kt con dirección variable
Visibilidad 10 km o más
Escasas nubes a una altura de 3000 ft
Evolucionando progresivamente
del 24 a las 06 UTC al 24 a las 08 UTC
Viento 12 kt del noreste

TAF: LGAV 231700Z 2318/2418 VRB05KT 9999 FEW030 BECMG 2406/2408 04012KT

Observaciones y pronósticos meteorológicos de más de 4000 aeropuertos (mensajes METAR y TAF).

Los puntos amarillos y rojos representan las estaciones disponibles.

Ponga el ratón en el punto deseado para ver el nombre de la estación.

Haga clic para ver las observaciones y los pronósticos meteorológicos.

Para cambiar el mapa : haga clic en los botones verdes con una cruz de color negro para hacer un zoom, en el botón verde con un guión para alejar o en las flechas verdes para mapas adyacentes.


METAR-TAF: